sensor_id;sensor_type;location;lat;lon;timestamp;P1;durP1;ratioP1;P2;durP2;ratioP2
16673;SDS011;8450;52.654;10.326;2023-03-14T06:50:28;2.30;;;1.50;;
16673;SDS011;8450;52.654;10.326;2023-03-14T06:52:56;1.50;;;1.07;;
16673;SDS011;8450;52.654;10.326;2023-03-14T06:55:24;4.80;;;1.63;;
16673;SDS011;8450;52.654;10.326;2023-03-14T06:57:52;2.80;;;1.80;;
16673;SDS011;8450;52.654;10.326;2023-03-14T07:00:18;2.83;;;1.87;;
16673;SDS011;8450;52.654;10.326;2023-03-14T07:02:44;2.63;;;1.43;;
16673;SDS011;8450;52.654;10.326;2023-03-14T07:08:02;2.10;;;1.50;;
16673;SDS011;8450;52.654;10.326;2023-03-14T07:10:28;3.57;;;1.73;;
16673;SDS011;8450;52.654;10.326;2023-03-14T07:12:54;1.57;;;1.37;;
16673;SDS011;8450;52.654;10.326;2023-03-14T07:18:08;3.90;;;1.30;;
16673;SDS011;8450;52.654;10.326;2023-03-14T07:20:33;3.20;;;1.60;;
16673;SDS011;8450;52.654;10.326;2023-03-14T07:25:42;3.97;;;1.60;;
16673;SDS011;8450;52.654;10.326;2023-03-14T07:28:08;3.30;;;1.53;;
16673;SDS011;8450;52.654;10.326;2023-03-14T07:30:35;3.10;;;1.60;;
16673;SDS011;8450;52.654;10.326;2023-03-14T07:33:05;5.77;;;1.70;;
16673;SDS011;8450;52.654;10.326;2023-03-14T07:35:31;2.93;;;1.53;;
16673;SDS011;8450;52.654;10.326;2023-03-14T07:37:57;2.83;;;1.70;;
16673;SDS011;8450;52.654;10.326;2023-03-14T07:40:30;5.57;;;1.80;;
16673;SDS011;8450;52.654;10.326;2023-03-14T07:45:46;2.90;;;1.83;;
16673;SDS011;8450;52.654;10.326;2023-03-14T07:48:12;3.77;;;1.40;;
16673;SDS011;8450;52.654;10.326;2023-03-14T07:50:37;2.73;;;1.60;;
16673;SDS011;8450;52.654;10.326;2023-03-14T07:53:03;1.90;;;1.27;;
16673;SDS011;8450;52.654;10.326;2023-03-14T07:55:29;5.27;;;1.70;;
16673;SDS011;8450;52.654;10.326;2023-03-14T07:57:54;3.07;;;1.40;;
16673;SDS011;8450;52.654;10.326;2023-03-14T08:00:20;3.27;;;1.27;;
16673;SDS011;8450;52.654;10.326;2023-03-14T08:02:45;2.03;;;1.40;;
16673;SDS011;8450;52.654;10.326;2023-03-14T08:05:11;2.33;;;1.33;;
16673;SDS011;8450;52.654;10.326;2023-03-14T08:07:37;2.53;;;1.40;;
16673;SDS011;8450;52.654;10.326;2023-03-14T08:10:02;1.60;;;1.00;;
16673;SDS011;8450;52.654;10.326;2023-03-14T08:12:29;1.73;;;1.10;;
16673;SDS011;8450;52.654;10.326;2023-03-14T08:20:26;1.93;;;1.10;;
16673;SDS011;8450;52.654;10.326;2023-03-14T08:22:55;1.63;;;1.20;;
16673;SDS011;8450;52.654;10.326;2023-03-14T08:25:22;1.73;;;1.10;;
16673;SDS011;8450;52.654;10.326;2023-03-14T08:27:47;1.57;;;1.17;;
16673;SDS011;8450;52.654;10.326;2023-03-14T08:30:16;1.50;;;1.00;;
16673;SDS011;8450;52.654;10.326;2023-03-14T08:32:43;2.10;;;1.07;;
16673;SDS011;8450;52.654;10.326;2023-03-14T08:46:00;1.13;;;0.90;;
16673;SDS011;8450;52.654;10.326;2023-03-14T08:48:26;1.30;;;1.00;;
16673;SDS011;8450;52.654;10.326;2023-03-14T08:50:52;1.10;;;0.80;;
16673;SDS011;8450;52.654;10.326;2023-03-14T08:56:17;1.37;;;0.90;;
16673;SDS011;8450;52.654;10.326;2023-03-14T08:58:43;2.60;;;1.07;;
16673;SDS011;8450;52.654;10.326;2023-03-14T09:01:09;1.10;;;0.90;;
16673;SDS011;8450;52.654;10.326;2023-03-14T09:06:23;0.80;;;0.80;;
16673;SDS011;8450;52.654;10.326;2023-03-14T09:08:49;1.90;;;1.00;;
16673;SDS011;8450;52.654;10.326;2023-03-14T09:11:14;1.87;;;1.00;;
16673;SDS011;8450;52.654;10.326;2023-03-14T09:13:40;0.70;;;0.70;;
16673;SDS011;8450;52.654;10.326;2023-03-14T09:16:06;1.10;;;0.97;;
16673;SDS011;8450;52.654;10.326;2023-03-14T09:18:32;1.23;;;0.90;;
16673;SDS011;8450;52.654;10.326;2023-03-14T09:20:58;0.93;;;0.77;;
16673;SDS011;8450;52.654;10.326;2023-03-14T09:26:17;0.93;;;0.83;;
16673;SDS011;8450;52.654;10.326;2023-03-14T09:29:03;2.27;;;0.80;;
16673;SDS011;8450;52.654;10.326;2023-03-14T09:31:35;1.00;;;0.90;;
16673;SDS011;8450;52.654;10.326;2023-03-14T09:34:01;0.77;;;0.77;;
16673;SDS011;8450;52.654;10.326;2023-03-14T09:36:26;1.90;;;0.80;;
16673;SDS011;8450;52.654;10.326;2023-03-14T09:38:52;0.90;;;0.80;;
16673;SDS011;8450;52.654;10.326;2023-03-14T09:41:21;1.90;;;1.03;;
16673;SDS011;8450;52.654;10.326;2023-03-14T09:49:33;1.47;;;0.90;;
16673;SDS011;8450;52.654;10.326;2023-03-14T09:52:05;1.40;;;0.93;;
16673;SDS011;8450;52.654;10.326;2023-03-14T09:57:26;0.73;;;0.70;;
16673;SDS011;8450;52.654;10.326;2023-03-14T09:59:53;0.93;;;0.80;;
16673;SDS011;8450;52.654;10.326;2023-03-14T10:02:23;1.00;;;0.80;;
16673;SDS011;8450;52.654;10.326;2023-03-14T10:04:51;0.80;;;0.80;;
16673;SDS011;8450;52.654;10.326;2023-03-14T10:07:23;1.40;;;0.90;;
16673;SDS011;8450;52.654;10.326;2023-03-14T10:09:53;0.80;;;0.80;;
16673;SDS011;8450;52.654;10.326;2023-03-14T10:12:19;2.30;;;0.90;;
16673;SDS011;8450;52.654;10.326;2023-03-14T10:14:54;1.60;;;1.00;;
16673;SDS011;8450;52.654;10.326;2023-03-14T10:17:19;0.90;;;0.90;;
16673;SDS011;8450;52.654;10.326;2023-03-14T10:19:56;1.43;;;0.90;;
16673;SDS011;8450;52.654;10.326;2023-03-14T10:22:24;1.20;;;1.00;;
16673;SDS011;8450;52.654;10.326;2023-03-14T10:27:40;1.37;;;1.20;;
16673;SDS011;8450;52.654;10.326;2023-03-14T10:30:06;1.87;;;1.20;;
16673;SDS011;8450;52.654;10.326;2023-03-14T10:32:51;1.17;;;1.07;;
16673;SDS011;8450;52.654;10.326;2023-03-14T10:37:51;1.97;;;1.30;;
16673;SDS011;8450;52.654;10.326;2023-03-14T10:40:36;1.20;;;1.10;;
16673;SDS011;8450;52.654;10.326;2023-03-14T10:45:56;2.00;;;1.30;;
16673;SDS011;8450;52.654;10.326;2023-03-14T10:48:34;1.83;;;1.13;;
16673;SDS011;8450;52.654;10.326;2023-03-14T10:51:04;1.80;;;1.43;;
16673;SDS011;8450;52.654;10.326;2023-03-14T10:53:42;1.47;;;1.30;;
16673;SDS011;8450;52.654;10.326;2023-03-14T10:56:19;1.30;;;1.20;;
16673;SDS011;8450;52.654;10.326;2023-03-14T10:58:47;1.30;;;1.20;;
16673;SDS011;8450;52.654;10.326;2023-03-14T11:01:27;2.50;;;1.37;;
16673;SDS011;8450;52.654;10.326;2023-03-14T11:12:14;1.90;;;1.53;;
16673;SDS011;8450;52.654;10.326;2023-03-14T11:15:05;1.67;;;1.57;;
16673;SDS011;8450;52.654;10.326;2023-03-14T11:18:39;1.87;;;1.67;;
16673;SDS011;8450;52.654;10.326;2023-03-14T11:26:49;1.73;;;1.63;;
16673;SDS011;8450;52.654;10.326;2023-03-14T11:29:33;1.73;;;1.63;;
16673;SDS011;8450;52.654;10.326;2023-03-14T11:32:18;1.70;;;1.60;;
16673;SDS011;8450;52.654;10.326;2023-03-14T11:40:20;1.40;;;1.30;;
16673;SDS011;8450;52.654;10.326;2023-03-14T11:42:51;1.20;;;1.10;;
16673;SDS011;8450;52.654;10.326;2023-03-14T11:45:43;1.20;;;1.10;;
16673;SDS011;8450;52.654;10.326;2023-03-14T11:48:20;1.40;;;1.30;;
16673;SDS011;8450;52.654;10.326;2023-03-14T11:50:49;1.27;;;1.17;;
16673;SDS011;8450;52.654;10.326;2023-03-14T11:55:59;1.57;;;1.20;;
16673;SDS011;8450;52.654;10.326;2023-03-14T11:58:26;2.47;;;1.10;;
16673;SDS011;8450;52.654;10.326;2023-03-14T12:00:54;1.30;;;1.20;;
16673;SDS011;8450;52.654;10.326;2023-03-14T12:06:21;3.60;;;2.87;;
16673;SDS011;8450;52.654;10.326;2023-03-14T12:09:02;5.57;;;3.40;;
16673;SDS011;8450;52.654;10.326;2023-03-14T12:13:57;4.50;;;3.23;;
16673;SDS011;8450;52.654;10.326;2023-03-14T12:18:49;3.63;;;2.93;;
16673;SDS011;8450;52.654;10.326;2023-03-14T12:21:16;2.90;;;2.70;;
16673;SDS011;8450;52.654;10.326;2023-03-14T12:23:43;2.50;;;2.30;;
16673;SDS011;8450;52.654;10.326;2023-03-14T12:26:18;3.37;;;2.67;;
16673;SDS011;8450;52.654;10.326;2023-03-14T12:28:52;3.00;;;2.67;;
16673;SDS011;8450;52.654;10.326;2023-03-14T12:31:43;2.10;;;1.90;;
16673;SDS011;8450;52.654;10.326;2023-03-14T12:37:00;1.70;;;1.60;;
16673;SDS011;8450;52.654;10.326;2023-03-14T12:48:08;1.87;;;1.63;;
16673;SDS011;8450;52.654;10.326;2023-03-14T12:50:37;1.53;;;1.43;;
16673;SDS011;8450;52.654;10.326;2023-03-14T13:04:03;1.70;;;1.60;;
16673;SDS011;8450;52.654;10.326;2023-03-14T13:06:53;2.83;;;2.23;;
16673;SDS011;8450;52.654;10.326;2023-03-14T13:12:11;3.23;;;2.10;;
16673;SDS011;8450;52.654;10.326;2023-03-14T13:14:46;2.20;;;1.90;;
16673;SDS011;8450;52.654;10.326;2023-03-14T13:17:15;1.80;;;1.70;;
16673;SDS011;8450;52.654;10.326;2023-03-14T13:19:50;3.80;;;1.60;;
16673;SDS011;8450;52.654;10.326;2023-03-14T13:22:26;2.00;;;1.50;;
16673;SDS011;8450;52.654;10.326;2023-03-14T13:27:35;3.00;;;1.73;;
16673;SDS011;8450;52.654;10.326;2023-03-14T13:30:15;3.67;;;1.40;;
16673;SDS011;8450;52.654;10.326;2023-03-14T13:32:46;1.80;;;1.40;;
16673;SDS011;8450;52.654;10.326;2023-03-14T13:35:14;2.47;;;1.93;;
16673;SDS011;8450;52.654;10.326;2023-03-14T13:37:42;3.03;;;2.23;;
16673;SDS011;8450;52.654;10.326;2023-03-14T13:40:17;3.33;;;1.83;;
16673;SDS011;8450;52.654;10.326;2023-03-14T13:42:44;4.30;;;1.90;;
16673;SDS011;8450;52.654;10.326;2023-03-14T13:45:13;6.40;;;2.97;;
16673;SDS011;8450;52.654;10.326;2023-03-14T13:47:42;8.40;;;3.73;;
16673;SDS011;8450;52.654;10.326;2023-03-14T13:50:17;6.07;;;3.10;;
16673;SDS011;8450;52.654;10.326;2023-03-14T13:52:43;8.30;;;3.57;;
16673;SDS011;8450;52.654;10.326;2023-03-14T13:55:18;9.00;;;4.80;;
16673;SDS011;8450;52.654;10.326;2023-03-14T13:57:44;9.53;;;3.70;;
16673;SDS011;8450;52.654;10.326;2023-03-14T14:00:18;6.50;;;3.30;;
16673;SDS011;8450;52.654;10.326;2023-03-14T14:02:54;6.17;;;3.37;;
16673;SDS011;8450;52.654;10.326;2023-03-14T14:05:22;8.33;;;2.93;;
16673;SDS011;8450;52.654;10.326;2023-03-14T14:07:49;4.97;;;2.90;;
16673;SDS011;8450;52.654;10.326;2023-03-14T14:10:16;5.33;;;2.80;;
16673;SDS011;8450;52.654;10.326;2023-03-14T14:12:50;8.13;;;2.63;;
16673;SDS011;8450;52.654;10.326;2023-03-14T14:15:27;4.43;;;2.33;;
16673;SDS011;8450;52.654;10.326;2023-03-14T14:18:05;3.43;;;2.43;;
16673;SDS011;8450;52.654;10.326;2023-03-14T14:20:36;5.30;;;2.70;;
16673;SDS011;8450;52.654;10.326;2023-03-14T14:23:11;4.13;;;2.40;;
16673;SDS011;8450;52.654;10.326;2023-03-14T14:25:39;9.87;;;4.13;;
16673;SDS011;8450;52.654;10.326;2023-03-14T14:31:02;4.47;;;2.50;;
16673;SDS011;8450;52.654;10.326;2023-03-14T14:33:45;6.73;;;3.43;;
16673;SDS011;8450;52.654;10.326;2023-03-14T14:36:42;6.57;;;2.73;;
16673;SDS011;8450;52.654;10.326;2023-03-14T14:39:17;6.70;;;2.27;;
16673;SDS011;8450;52.654;10.326;2023-03-14T14:41:43;8.37;;;2.83;;
16673;SDS011;8450;52.654;10.326;2023-03-14T14:44:12;9.13;;;2.73;;
16673;SDS011;8450;52.654;10.326;2023-03-14T14:46:41;12.07;;;2.87;;
16673;SDS011;8450;52.654;10.326;2023-03-14T14:49:12;10.90;;;3.03;;
16673;SDS011;8450;52.654;10.326;2023-03-14T14:51:41;5.03;;;2.50;;
16673;SDS011;8450;52.654;10.326;2023-03-14T14:54:10;7.83;;;2.80;;
16673;SDS011;8450;52.654;10.326;2023-03-14T14:56:38;7.83;;;2.80;;
16673;SDS011;8450;52.654;10.326;2023-03-14T14:59:05;9.63;;;4.30;;
16673;SDS011;8450;52.654;10.326;2023-03-14T15:01:42;11.40;;;3.50;;
16673;SDS011;8450;52.654;10.326;2023-03-14T15:04:12;7.97;;;3.27;;
16673;SDS011;8450;52.654;10.326;2023-03-14T15:06:42;10.50;;;3.57;;
16673;SDS011;8450;52.654;10.326;2023-03-14T15:09:10;9.10;;;3.13;;
16673;SDS011;8450;52.654;10.326;2023-03-14T15:11:36;11.43;;;3.20;;
16673;SDS011;8450;52.654;10.326;2023-03-14T15:14:01;9.43;;;3.00;;
16673;SDS011;8450;52.654;10.326;2023-03-14T15:16:29;6.63;;;3.13;;
16673;SDS011;8450;52.654;10.326;2023-03-14T15:18:59;7.40;;;3.20;;
16673;SDS011;8450;52.654;10.326;2023-03-14T15:21:26;4.13;;;2.17;;
16673;SDS011;8450;52.654;10.326;2023-03-14T15:23:52;4.83;;;2.90;;
16673;SDS011;8450;52.654;10.326;2023-03-14T15:26:19;8.13;;;2.87;;
16673;SDS011;8450;52.654;10.326;2023-03-14T15:28:47;8.17;;;3.03;;
16673;SDS011;8450;52.654;10.326;2023-03-14T15:31:14;5.37;;;3.03;;
16673;SDS011;8450;52.654;10.326;2023-03-14T15:33:41;9.00;;;2.63;;
16673;SDS011;8450;52.654;10.326;2023-03-14T15:36:19;6.40;;;2.60;;
16673;SDS011;8450;52.654;10.326;2023-03-14T15:38:46;5.50;;;2.87;;
16673;SDS011;8450;52.654;10.326;2023-03-14T15:41:12;4.23;;;2.53;;
16673;SDS011;8450;52.654;10.326;2023-03-14T15:43:56;7.23;;;2.43;;
16673;SDS011;8450;52.654;10.326;2023-03-14T15:46:24;6.23;;;2.17;;
16673;SDS011;8450;52.654;10.326;2023-03-14T15:48:50;7.67;;;2.70;;
16673;SDS011;8450;52.654;10.326;2023-03-14T15:51:17;6.60;;;2.10;;
16673;SDS011;8450;52.654;10.326;2023-03-14T15:53:43;4.10;;;2.23;;
16673;SDS011;8450;52.654;10.326;2023-03-14T15:56:13;5.70;;;2.60;;
16673;SDS011;8450;52.654;10.326;2023-03-14T15:58:40;6.40;;;2.20;;
16673;SDS011;8450;52.654;10.326;2023-03-14T16:01:09;5.60;;;2.30;;
16673;SDS011;8450;52.654;10.326;2023-03-14T16:03:35;7.67;;;3.03;;
16673;SDS011;8450;52.654;10.326;2023-03-14T16:06:00;8.60;;;3.00;;
16673;SDS011;8450;52.654;10.326;2023-03-14T16:08:26;7.43;;;2.50;;
16673;SDS011;8450;52.654;10.326;2023-03-14T16:10:54;4.57;;;2.70;;
16673;SDS011;8450;52.654;10.326;2023-03-14T16:18:35;3.97;;;2.03;;
16673;SDS011;8450;52.654;10.326;2023-03-14T16:21:11;5.60;;;2.37;;
16673;SDS011;8450;52.654;10.326;2023-03-14T16:23:43;5.17;;;1.90;;
16673;SDS011;8450;52.654;10.326;2023-03-14T16:26:11;5.17;;;1.90;;
16673;SDS011;8450;52.654;10.326;2023-03-14T16:28:39;4.53;;;2.17;;
16673;SDS011;8450;52.654;10.326;2023-03-14T16:31:09;5.20;;;1.87;;
